createdAt,value
2023-01-09T00:01:59.263Z,7.10
2023-01-09T00:04:25.991Z,7.00
2023-01-09T00:06:55.785Z,7.00
2023-01-09T00:09:23.155Z,7.00
2023-01-09T00:11:50.111Z,7.10
2023-01-09T00:14:17.183Z,7.00
2023-01-09T00:16:43.963Z,7.00
2023-01-09T00:19:10.827Z,7.00
2023-01-09T00:21:37.775Z,7.10
2023-01-09T00:24:04.926Z,7.10
2023-01-09T00:26:31.632Z,7.10
2023-01-09T00:29:00.206Z,7.10
2023-01-09T00:31:26.938Z,7.10
2023-01-09T00:34:00.826Z,7.10
2023-01-09T00:36:27.710Z,7.10
2023-01-09T00:38:54.439Z,7.10
2023-01-09T00:41:52.119Z,7.20
2023-01-09T00:44:42.742Z,7.20
2023-01-09T00:47:13.488Z,7.20
2023-01-09T00:49:40.319Z,7.20
2023-01-09T00:52:07.118Z,7.20
2023-01-09T00:54:33.792Z,7.20
2023-01-09T00:57:00.553Z,7.20
2023-01-09T00:59:27.495Z,7.30
2023-01-09T01:01:54.310Z,7.20
2023-01-09T01:04:39.423Z,7.20
2023-01-09T01:07:24.735Z,7.20
2023-01-09T01:09:51.386Z,7.20
2023-01-09T01:12:18.044Z,7.20
2023-01-09T01:14:44.690Z,7.20
2023-01-09T01:17:11.381Z,7.20
2023-01-09T01:19:38.075Z,7.10
2023-01-09T01:22:04.857Z,7.10
2023-01-09T01:24:31.563Z,7.10
2023-01-09T01:26:58.255Z,7.00
2023-01-09T01:29:24.951Z,7.00
2023-01-09T01:31:52.139Z,7.00
2023-01-09T01:34:18.810Z,7.00
2023-01-09T01:36:45.494Z,6.90
2023-01-09T01:39:12.189Z,6.90
2023-01-09T01:41:38.931Z,6.90
2023-01-09T01:44:07.071Z,6.90
2023-01-09T01:46:34.175Z,6.90
2023-01-09T01:49:09.153Z,6.90
2023-01-09T01:51:41.670Z,6.90
2023-01-09T01:54:11.370Z,6.90
2023-01-09T01:56:40.706Z,6.90
2023-01-09T01:59:15.285Z,6.90
2023-01-09T02:01:44.083Z,6.90
2023-01-09T02:04:10.837Z,6.90
2023-01-09T02:06:37.930Z,6.90
2023-01-09T02:09:05.376Z,6.90
2023-01-09T02:11:32.045Z,6.90
2023-01-09T02:13:58.872Z,6.90
2023-01-09T02:16:32.250Z,6.90
2023-01-09T02:19:40.545Z,6.90
2023-01-09T02:22:44.796Z,6.90
2023-01-09T02:25:45.678Z,6.90
2023-01-09T02:28:37.104Z,6.90
2023-01-09T02:31:22.118Z,6.90
2023-01-09T02:34:14.178Z,6.80
2023-01-09T02:37:04.897Z,6.80
2023-01-09T02:39:42.505Z,6.70
2023-01-09T02:42:13.388Z,6.70
2023-01-09T02:44:42.908Z,6.70
2023-01-09T02:47:15.656Z,6.60
2023-01-09T02:49:52.371Z,6.50
2023-01-09T02:52:30.983Z,6.60
2023-01-09T02:55:22.491Z,6.60
2023-01-09T02:58:04.926Z,6.60
2023-01-09T03:00:46.012Z,6.60
2023-01-09T03:03:24.520Z,6.60
2023-01-09T03:05:53.100Z,6.60
2023-01-09T03:08:21.008Z,6.50
2023-01-09T03:10:52.732Z,6.40
2023-01-09T03:13:20.069Z,6.40
2023-01-09T03:15:46.841Z,6.40
2023-01-09T03:18:13.728Z,6.30
2023-01-09T03:20:40.381Z,6.30
2023-01-09T03:23:07.276Z,6.20
2023-01-09T03:25:34.438Z,6.20
2023-01-09T03:28:06.574Z,6.20
2023-01-09T03:30:34.041Z,6.20
2023-01-09T03:33:00.841Z,6.20
2023-01-09T03:35:28.059Z,6.30
2023-01-09T03:37:54.822Z,6.30
2023-01-09T03:40:21.569Z,6.30
2023-01-09T03:42:48.318Z,6.30
2023-01-09T03:45:15.119Z,6.30
2023-01-09T03:47:41.815Z,6.20
2023-01-09T03:50:09.570Z,6.30
2023-01-09T03:52:36.341Z,6.30
2023-01-09T03:55:03.130Z,6.20
2023-01-09T03:57:29.877Z,6.20
2023-01-09T03:59:56.544Z,6.20
2023-01-09T04:02:23.230Z,6.20
2023-01-09T04:04:49.893Z,6.20
2023-01-09T04:07:16.949Z,6.10
2023-01-09T04:09:43.611Z,6.10
2023-01-09T04:12:10.327Z,6.10
2023-01-09T04:14:36.982Z,6.10
2023-01-09T04:17:03.652Z,6.10
2023-01-09T04:19:30.386Z,6.10
2023-01-09T04:21:57.049Z,6.10
2023-01-09T04:24:23.837Z,6.10
2023-01-09T04:26:50.503Z,6.10
2023-01-09T04:29:17.170Z,6.10
2023-01-09T04:31:43.931Z,6.10
2023-01-09T04:34:10.636Z,6.10
2023-01-09T04:36:37.368Z,6.10
2023-01-09T04:39:04.104Z,6.10
2023-01-09T04:41:48.819Z,6.10
2023-01-09T04:44:27.782Z,6.20
2023-01-09T04:46:55.619Z,6.20
2023-01-09T04:49:22.409Z,6.20
2023-01-09T04:51:49.139Z,6.20
2023-01-09T04:54:16.043Z,6.20
2023-01-09T04:56:43.342Z,6.20
2023-01-09T04:59:10.022Z,6.20
2023-01-09T05:01:36.807Z,6.20
2023-01-09T05:04:03.855Z,6.30
2023-01-09T05:06:30.707Z,6.20
2023-01-09T05:08:57.700Z,6.30
2023-01-09T05:11:25.498Z,6.20
2023-01-09T05:13:52.855Z,6.30
2023-01-09T05:16:19.961Z,6.20
2023-01-09T05:18:46.625Z,6.30
2023-01-09T05:21:13.461Z,6.30
2023-01-09T05:23:40.166Z,6.30
2023-01-09T05:26:07.103Z,6.20
2023-01-09T05:28:33.780Z,6.30
2023-01-09T05:31:00.472Z,6.20
2023-01-09T05:33:27.210Z,6.30
2023-01-09T05:35:53.975Z,6.30
2023-01-09T05:38:20.689Z,6.30
2023-01-09T05:40:47.401Z,6.30
2023-01-09T05:43:14.108Z,6.20
2023-01-09T05:45:40.946Z,6.20
2023-01-09T05:48:07.696Z,6.30
2023-01-09T05:50:34.418Z,6.30
2023-01-09T05:53:01.070Z,6.30
2023-01-09T05:55:27.747Z,6.30
2023-01-09T05:57:54.443Z,6.30
2023-01-09T06:00:21.336Z,6.30
2023-01-09T06:02:48.024Z,6.30
2023-01-09T06:05:14.844Z,6.30
2023-01-09T06:07:41.636Z,6.30
2023-01-09T06:10:10.709Z,6.30
2023-01-09T06:12:37.682Z,6.30
2023-01-09T06:15:05.960Z,6.30
2023-01-09T06:17:34.108Z,6.30
2023-01-09T06:20:03.498Z,6.40
2023-01-09T06:22:30.186Z,6.30
2023-01-09T06:24:56.854Z,6.40
2023-01-09T06:27:23.587Z,6.40
2023-01-09T06:29:50.308Z,6.40
2023-01-09T06:32:16.999Z,6.40
2023-01-09T06:34:43.720Z,6.40
2023-01-09T06:37:10.570Z,6.40
2023-01-09T06:39:37.268Z,6.40
2023-01-09T06:42:04.270Z,6.40
2023-01-09T06:44:32.883Z,6.40
2023-01-09T06:46:59.577Z,6.40
2023-01-09T06:49:26.721Z,6.40
2023-01-09T06:51:53.431Z,6.40
2023-01-09T06:54:20.343Z,6.40
2023-01-09T06:56:47.305Z,6.40
2023-01-09T06:59:13.965Z,6.40
2023-01-09T07:01:40.782Z,6.40
2023-01-09T07:04:08.133Z,6.40
2023-01-09T07:06:34.859Z,6.40
2023-01-09T07:09:01.730Z,6.40
2023-01-09T07:11:28.404Z,6.40
2023-01-09T07:13:55.455Z,6.30
2023-01-09T07:16:22.167Z,6.30
2023-01-09T07:18:48.905Z,6.30
2023-01-09T07:21:15.640Z,6.30
2023-01-09T07:23:42.330Z,6.20
2023-01-09T07:26:09.395Z,6.20
2023-01-09T07:28:36.169Z,6.20
2023-01-09T07:31:04.523Z,6.20
2023-01-09T07:33:31.231Z,6.20
2023-01-09T07:35:57.874Z,6.20
2023-01-09T07:38:24.591Z,6.20
2023-01-09T07:40:51.311Z,6.20
2023-01-09T07:43:17.961Z,6.20
2023-01-09T07:45:45.935Z,6.30
2023-01-09T07:48:12.599Z,6.20
2023-01-09T07:50:39.254Z,6.30
2023-01-09T07:53:05.929Z,6.30
2023-01-09T07:55:32.604Z,6.30
2023-01-09T07:57:59.276Z,6.20
2023-01-09T08:00:25.923Z,6.30
2023-01-09T08:02:53.420Z,6.30
2023-01-09T08:05:20.439Z,6.20
2023-01-09T08:07:47.203Z,6.20
2023-01-09T08:10:13.991Z,6.20
2023-01-09T08:12:43.740Z,6.20
2023-01-09T08:15:10.999Z,6.20
2023-01-09T08:17:37.691Z,6.20
2023-01-09T08:20:04.672Z,6.20
2023-01-09T08:22:31.378Z,6.30
2023-01-09T08:24:58.588Z,6.30
2023-01-09T08:27:25.240Z,6.30
2023-01-09T08:29:51.920Z,6.30
2023-01-09T08:32:18.638Z,6.30
2023-01-09T08:34:45.304Z,6.40
2023-01-09T08:37:13.165Z,6.40
2023-01-09T08:39:39.878Z,6.40
2023-01-09T08:42:38.658Z,6.40
2023-01-09T08:45:24.126Z,6.40
2023-01-09T08:47:50.792Z,6.40
2023-01-09T08:50:17.504Z,6.40
2023-01-09T08:52:44.231Z,6.40
2023-01-09T08:55:10.999Z,6.40
2023-01-09T08:57:37.652Z,6.50
2023-01-09T09:00:04.639Z,6.40
2023-01-09T09:02:31.363Z,6.40
2023-01-09T09:04:59.443Z,6.30
2023-01-09T09:07:28.032Z,6.40
2023-01-09T09:09:55.027Z,6.30
2023-01-09T09:12:22.040Z,6.30
2023-01-09T09:15:07.401Z,6.30
2023-01-09T09:17:34.282Z,6.30
2023-01-09T09:20:00.964Z,6.30
2023-01-09T09:22:27.644Z,6.30
2023-01-09T09:24:54.306Z,6.30
2023-01-09T09:27:20.957Z,6.30
2023-01-09T09:29:47.788Z,6.20
2023-01-09T09:32:14.453Z,6.20
2023-01-09T09:34:41.121Z,6.20
2023-01-09T09:37:07.861Z,6.20
2023-01-09T09:39:34.579Z,6.20
2023-01-09T09:42:25.776Z,6.20
2023-01-09T09:45:03.798Z,6.20
2023-01-09T09:47:30.510Z,6.20
2023-01-09T09:50:25.661Z,6.20
2023-01-09T09:52:52.417Z,6.20
2023-01-09T09:55:36.909Z,6.20
2023-01-09T09:58:06.719Z,6.30
2023-01-09T10:00:33.478Z,6.20
2023-01-09T10:03:06.124Z,6.20
2023-01-09T10:05:37.910Z,6.20
2023-01-09T10:08:39.136Z,6.20
2023-01-09T10:11:25.904Z,6.10
2023-01-09T10:14:08.196Z,6.20
2023-01-09T10:17:01.981Z,6.10
2023-01-09T10:19:49.877Z,6.00
2023-01-09T10:22:35.483Z,6.10
2023-01-09T10:25:22.981Z,6.10
2023-01-09T10:27:56.699Z,6.10
2023-01-09T10:30:32.281Z,6.00
2023-01-09T10:33:07.708Z,6.10
2023-01-09T10:35:47.419Z,6.10
2023-01-09T10:38:20.170Z,6.10
2023-01-09T10:40:51.000Z,6.10
2023-01-09T10:43:34.976Z,6.20
2023-01-09T10:46:03.571Z,6.30
2023-01-09T10:48:33.932Z,6.40
2023-01-09T10:51:00.768Z,6.50
2023-01-09T10:53:30.205Z,6.50
2023-01-09T10:56:05.432Z,6.60
2023-01-09T10:58:32.398Z,6.60
2023-01-09T11:01:01.272Z,6.60
2023-01-09T11:03:28.494Z,6.60
2023-01-09T11:05:57.814Z,6.60
2023-01-09T11:08:41.988Z,6.50
2023-01-09T11:11:09.379Z,6.50
2023-01-09T11:13:38.200Z,6.40
2023-01-09T11:16:07.802Z,6.40
2023-01-09T11:18:35.361Z,6.40
2023-01-09T11:21:27.564Z,6.40
2023-01-09T11:23:55.376Z,6.40
2023-01-09T11:26:27.030Z,6.40
2023-01-09T11:29:06.398Z,6.40
2023-01-09T11:31:33.333Z,6.40
2023-01-09T11:34:00.208Z,6.50
2023-01-09T11:36:26.940Z,6.70
2023-01-09T11:38:55.068Z,6.80
2023-01-09T11:41:42.022Z,6.90
2023-01-09T11:44:10.894Z,7.00
2023-01-09T11:46:39.929Z,6.90
2023-01-09T11:49:27.668Z,6.90
2023-01-09T11:52:20.372Z,6.80
2023-01-09T11:55:00.842Z,6.80
2023-01-09T11:57:27.523Z,6.80
2023-01-09T11:59:56.638Z,6.70
2023-01-09T12:02:45.840Z,6.80
2023-01-09T12:05:41.637Z,6.80
2023-01-09T12:08:17.151Z,6.80
2023-01-09T12:11:14.808Z,6.80
2023-01-09T12:14:15.827Z,6.90
2023-01-09T12:16:42.492Z,6.80
2023-01-09T12:19:37.898Z,6.80
2023-01-09T12:22:39.692Z,6.90
2023-01-09T12:25:29.123Z,6.90
2023-01-09T12:28:07.749Z,6.90
2023-01-09T12:30:56.502Z,7.10
2023-01-09T12:33:47.923Z,7.20
2023-01-09T12:36:25.884Z,7.20
2023-01-09T12:39:08.799Z,7.10
2023-01-09T12:41:42.751Z,7.10
2023-01-09T12:44:35.748Z,7.10
2023-01-09T12:47:34.885Z,7.10
2023-01-09T12:50:31.875Z,7.00
2023-01-09T12:53:14.261Z,7.00
2023-01-09T12:55:48.157Z,7.00
2023-01-09T12:58:31.397Z,6.90
2023-01-09T13:00:58.620Z,6.90
2023-01-09T13:03:33.650Z,6.80
2023-01-09T13:06:00.369Z,6.70
2023-01-09T13:08:33.637Z,6.70
2023-01-09T13:11:29.112Z,6.70
2023-01-09T13:14:26.638Z,6.70
2023-01-09T13:16:53.702Z,6.60
2023-01-09T13:19:34.478Z,6.50
2023-01-09T13:22:02.475Z,6.50
2023-01-09T13:24:42.191Z,6.50
2023-01-09T13:27:15.363Z,6.50
2023-01-09T13:29:43.996Z,6.50
2023-01-09T13:32:34.682Z,6.40
2023-01-09T13:35:06.930Z,6.40
2023-01-09T13:37:35.928Z,6.40
2023-01-09T13:40:07.970Z,6.30
2023-01-09T13:42:45.909Z,6.10
2023-01-09T13:45:24.729Z,5.90
2023-01-09T13:48:11.054Z,5.90
2023-01-09T13:50:38.204Z,5.80
2023-01-09T13:53:20.312Z,5.80
2023-01-09T13:56:02.924Z,5.80
2023-01-09T13:58:39.903Z,5.80
2023-01-09T14:01:38.791Z,5.70
2023-01-09T14:04:17.767Z,5.80
2023-01-09T14:07:13.561Z,5.80
2023-01-09T14:09:46.029Z,5.70
2023-01-09T14:12:15.947Z,5.70
2023-01-09T14:14:45.069Z,5.70
2023-01-09T14:17:16.638Z,5.70
2023-01-09T14:19:43.287Z,5.70
2023-01-09T14:22:24.788Z,5.70
2023-01-09T14:24:53.211Z,5.70
2023-01-09T14:27:51.432Z,5.70
2023-01-09T14:30:27.354Z,5.60
2023-01-09T14:33:15.448Z,5.70
2023-01-09T14:35:48.080Z,5.70
2023-01-09T14:38:32.739Z,5.70
2023-01-09T14:41:08.897Z,5.70
2023-01-09T14:43:45.362Z,5.80
2023-01-09T14:46:14.940Z,5.80
2023-01-09T14:49:13.184Z,5.80
2023-01-09T14:51:42.647Z,5.70
2023-01-09T14:54:32.982Z,5.70
2023-01-09T14:57:01.205Z,5.70
2023-01-09T14:59:28.137Z,5.80
2023-01-09T15:01:57.618Z,5.80
2023-01-09T15:04:38.038Z,5.80
2023-01-09T15:07:04.887Z,5.90
2023-01-09T15:09:45.773Z,5.90
2023-01-09T15:12:19.364Z,5.80
2023-01-09T15:14:47.270Z,5.80
2023-01-09T15:17:21.042Z,5.80
2023-01-09T15:19:48.438Z,5.80
2023-01-09T15:22:36.015Z,5.80
2023-01-09T15:25:27.420Z,5.80
2023-01-09T15:28:00.978Z,5.80
2023-01-09T15:30:34.876Z,5.80
2023-01-09T15:33:15.679Z,5.90
2023-01-09T15:35:42.899Z,5.80
2023-01-09T15:38:15.775Z,5.80
2023-01-09T15:40:42.500Z,5.80
2023-01-09T15:43:14.447Z,5.70
2023-01-09T15:45:42.054Z,5.70
2023-01-09T15:48:29.616Z,5.70
2023-01-09T15:51:04.377Z,5.70
2023-01-09T15:53:31.083Z,5.70
2023-01-09T15:56:33.342Z,5.70
2023-01-09T15:59:00.454Z,5.70
2023-01-09T16:01:31.854Z,5.70
2023-01-09T16:04:05.054Z,5.70
2023-01-09T16:06:37.315Z,5.70
2023-01-09T16:09:05.281Z,5.70
2023-01-09T16:11:36.213Z,5.70
2023-01-09T16:14:39.190Z,5.70
2023-01-09T16:17:15.305Z,5.70
2023-01-09T16:19:55.740Z,5.70
2023-01-09T16:22:24.422Z,5.70
2023-01-09T16:24:54.333Z,5.70
2023-01-09T16:27:30.310Z,5.70
2023-01-09T16:29:59.252Z,5.70
2023-01-09T16:32:36.724Z,5.70
2023-01-09T16:35:07.534Z,5.80
2023-01-09T16:37:34.401Z,5.80
2023-01-09T16:40:22.214Z,5.80
2023-01-09T16:43:03.197Z,5.80
2023-01-09T16:45:34.687Z,5.80
2023-01-09T16:48:02.285Z,5.80
2023-01-09T16:50:29.059Z,5.80
2023-01-09T16:52:56.990Z,5.90
2023-01-09T16:55:23.649Z,5.90
2023-01-09T16:57:50.301Z,5.80
2023-01-09T17:00:20.561Z,5.80
2023-01-09T17:02:47.982Z,5.90
2023-01-09T17:05:14.706Z,5.90
2023-01-09T17:07:41.373Z,5.90
2023-01-09T17:10:15.932Z,6.00
2023-01-09T17:12:42.647Z,6.00
2023-01-09T17:15:10.337Z,6.00
2023-01-09T17:17:37.021Z,6.00
2023-01-09T17:20:07.433Z,6.00
2023-01-09T17:22:34.071Z,5.90
2023-01-09T17:25:19.763Z,5.90
2023-01-09T17:28:05.350Z,5.90
2023-01-09T17:30:32.168Z,5.90
2023-01-09T17:32:58.816Z,5.90
2023-01-09T17:35:25.484Z,5.80
2023-01-09T17:37:52.174Z,5.80
2023-01-09T17:40:23.145Z,5.80
2023-01-09T17:42:49.963Z,5.80
2023-01-09T17:45:16.649Z,5.80
2023-01-09T17:47:43.319Z,5.80
2023-01-09T17:50:17.724Z,5.80
2023-01-09T17:52:44.482Z,5.80
2023-01-09T17:55:11.180Z,5.80
2023-01-09T17:57:37.926Z,5.80
2023-01-09T18:00:06.365Z,5.90
2023-01-09T18:02:33.118Z,5.80
2023-01-09T18:04:59.830Z,5.80
2023-01-09T18:07:26.583Z,5.80
2023-01-09T18:09:53.458Z,5.80
2023-01-09T18:12:20.198Z,5.70
2023-01-09T18:14:47.947Z,5.70
2023-01-09T18:17:14.740Z,5.60
2023-01-09T18:19:41.488Z,5.60
2023-01-09T18:22:08.163Z,5.60
2023-01-09T18:24:35.530Z,5.60
2023-01-09T18:27:02.409Z,5.60
2023-01-09T18:29:29.081Z,5.60
2023-01-09T18:31:55.839Z,5.60
2023-01-09T18:34:22.680Z,5.60
2023-01-09T18:36:49.428Z,5.60
2023-01-09T18:39:16.366Z,5.60
2023-01-09T18:41:43.063Z,5.60
2023-01-09T18:44:09.765Z,5.60
2023-01-09T18:46:38.281Z,5.60
2023-01-09T18:49:05.106Z,5.60
2023-01-09T18:51:33.026Z,5.60
2023-01-09T18:53:59.800Z,5.60
2023-01-09T18:56:26.499Z,5.60
2023-01-09T18:58:57.183Z,5.50
2023-01-09T19:01:24.181Z,5.60
2023-01-09T19:03:51.140Z,5.60
2023-01-09T19:06:17.996Z,5.60
2023-01-09T19:08:44.957Z,5.60
2023-01-09T19:11:11.748Z,5.60
2023-01-09T19:13:38.546Z,5.70
2023-01-09T19:16:06.676Z,5.90
2023-01-09T19:18:35.008Z,6.00
2023-01-09T19:21:01.911Z,6.10
2023-01-09T19:23:28.757Z,6.10
2023-01-09T19:25:55.506Z,6.20
2023-01-09T19:28:22.252Z,6.20
2023-01-09T19:30:55.724Z,6.10
2023-01-09T19:33:22.610Z,6.20
2023-01-09T19:35:49.381Z,6.10
2023-01-09T19:38:24.740Z,6.10
2023-01-09T19:40:51.681Z,6.10
2023-01-09T19:43:27.160Z,6.00
2023-01-09T19:45:54.469Z,5.90
2023-01-09T19:48:22.066Z,5.80
2023-01-09T19:50:48.819Z,5.80
2023-01-09T19:53:15.563Z,5.80
2023-01-09T19:55:42.287Z,5.70
2023-01-09T19:58:09.040Z,5.70
2023-01-09T20:00:36.639Z,5.70
2023-01-09T20:03:04.217Z,5.60
2023-01-09T20:05:30.864Z,5.60
2023-01-09T20:07:57.584Z,5.60
2023-01-09T20:10:24.309Z,5.60
2023-01-09T20:12:51.423Z,5.60
2023-01-09T20:15:18.107Z,5.50
2023-01-09T20:17:44.834Z,5.50
2023-01-09T20:20:11.646Z,5.50
2023-01-09T20:22:38.377Z,5.50
2023-01-09T20:25:07.891Z,5.50
2023-01-09T20:27:34.576Z,5.50
2023-01-09T20:30:01.461Z,5.50
2023-01-09T20:32:29.836Z,5.40
2023-01-09T20:34:57.073Z,5.40
2023-01-09T20:37:23.969Z,5.40
2023-01-09T20:39:52.916Z,5.50
2023-01-09T20:42:19.597Z,5.50
2023-01-09T20:44:46.431Z,5.60
2023-01-09T20:47:13.120Z,5.60
2023-01-09T20:49:39.799Z,5.50
2023-01-09T20:52:06.474Z,5.60
2023-01-09T20:54:33.142Z,5.60
2023-01-09T20:56:59.833Z,5.60
2023-01-09T20:59:26.623Z,5.60
2023-01-09T21:01:53.333Z,5.70
2023-01-09T21:04:20.249Z,5.70
2023-01-09T21:06:49.665Z,5.70
2023-01-09T21:09:16.614Z,5.80
2023-01-09T21:11:43.290Z,5.80
2023-01-09T21:14:09.956Z,5.80
2023-01-09T21:16:36.696Z,5.80
2023-01-09T21:19:03.447Z,5.80
2023-01-09T21:21:30.753Z,5.70
2023-01-09T21:23:58.005Z,5.60
2023-01-09T21:26:27.592Z,5.50
2023-01-09T21:28:55.420Z,5.30
2023-01-09T21:31:29.820Z,5.30
2023-01-09T21:33:56.790Z,5.30
2023-01-09T21:36:23.470Z,5.10
2023-01-09T21:38:53.398Z,5.10
2023-01-09T21:41:38.839Z,5.10
2023-01-09T21:44:24.960Z,5.10
2023-01-09T21:46:51.614Z,5.10
2023-01-09T21:49:23.174Z,5.20
2023-01-09T21:51:49.828Z,5.20
2023-01-09T21:54:16.528Z,5.20
2023-01-09T21:56:43.210Z,5.30
2023-01-09T21:59:10.235Z,5.30
2023-01-09T22:01:36.964Z,5.40
2023-01-09T22:04:03.753Z,5.40
2023-01-09T22:06:30.451Z,5.40
2023-01-09T22:08:57.115Z,5.50
2023-01-09T22:11:23.829Z,5.40
2023-01-09T22:13:50.614Z,5.50
2023-01-09T22:16:17.657Z,5.50
2023-01-09T22:18:44.433Z,5.50
2023-01-09T22:21:11.223Z,5.50
2023-01-09T22:23:37.914Z,5.50
2023-01-09T22:26:09.182Z,5.50
2023-01-09T22:28:35.950Z,5.50
2023-01-09T22:31:02.765Z,5.50
2023-01-09T22:33:29.445Z,5.40
2023-01-09T22:35:56.150Z,5.40
2023-01-09T22:38:22.826Z,5.40
2023-01-09T22:40:49.809Z,5.30
2023-01-09T22:43:17.167Z,5.30
2023-01-09T22:45:43.904Z,5.30
2023-01-09T22:48:10.735Z,5.30
2023-01-09T22:50:37.427Z,5.30
2023-01-09T22:53:04.249Z,5.30
2023-01-09T22:55:30.941Z,5.40
2023-01-09T22:57:57.654Z,5.40
2023-01-09T23:00:24.424Z,5.40
2023-01-09T23:02:51.165Z,5.50
2023-01-09T23:05:19.587Z,5.50
2023-01-09T23:07:46.283Z,5.50
2023-01-09T23:10:13.019Z,5.50
2023-01-09T23:12:39.687Z,5.50
2023-01-09T23:15:07.087Z,5.60
2023-01-09T23:17:33.868Z,5.60
2023-01-09T23:20:00.570Z,5.60
2023-01-09T23:22:27.230Z,5.60
2023-01-09T23:24:53.962Z,5.50
2023-01-09T23:27:20.635Z,5.50
2023-01-09T23:29:47.348Z,5.50
2023-01-09T23:32:14.091Z,5.50
2023-01-09T23:34:41.536Z,5.40
2023-01-09T23:37:09.514Z,5.30
2023-01-09T23:39:36.279Z,5.20
2023-01-09T23:42:21.346Z,5.20
2023-01-09T23:44:48.045Z,5.10
2023-01-09T23:47:14.800Z,5.10
2023-01-09T23:49:41.517Z,5.10
2023-01-09T23:52:08.633Z,5.10
2023-01-09T23:54:35.502Z,5.00
2023-01-09T23:57:02.517Z,5.00
2023-01-09T23:59:29.180Z,5.00
